^^
Paulen-Weather Station Historical Data
Daily Summary for May 21, 2022 Units:  Metric    English   Both
Daily Weekly Monthly Yearly Custom
  High: Low: Average:
Temperature: 15 °C 10 °C 11.8 °C
Dew Point: 11 °C 6 °C 8.6 °C
Humidity: 87% 65% 81%
Wind Speed: 22km/h 2km/h 8.4km/h
Wind Gust: 15km/h - -
Wind- - NW
Pressure: 1010.7 hPa 1008.94 hPa -
Precipitation: 0.41 mm    
Historical Graphs
 
 
Tabular Data for May 21, 2022
Time Temperature Dew Point Pressure Wind Wind Speed Wind Gust Humidity Rainfall Rate (Hourly) solar
00:04 13 °C 6 °C 1009.04 hPa N 13 km/h 12 km/h 65% 0 mm 0 W/m2
00:09 13 °C 7 °C 1009.11 hPa NNW 6 km/h 5 km/h 67% 0 mm 0 W/m2
00:14 13 °C 7 °C 1009.11 hPa NW 7 km/h 6 km/h 68% 0 mm 0 W/m2
00:19 13 °C 7 °C 1009.11 hPa WNW 6 km/h 5 km/h 69% 0 mm 0 W/m2
00:24 13 °C 7 °C 1009.08 hPa W 5 km/h 5 km/h 70% 0 mm 0 W/m2
00:29 13 °C 7 °C 1009.08 hPa NW 9 km/h 7 km/h 71% 0 mm 0 W/m2
00:34 13 °C 8 °C 1009.21 hPa WNW 6 km/h 6 km/h 71% 0 mm 0 W/m2
00:39 12 °C 8 °C 1009.25 hPa NW 5 km/h 4 km/h 71% 0 mm 0 W/m2
00:44 12 °C 7 °C 1009.31 hPa W 5 km/h 5 km/h 70% 0 mm 0 W/m2
00:49 12 °C 7 °C 1009.31 hPa WSW 4 km/h 3 km/h 69% 0 mm 0 W/m2
00:54 12 °C 7 °C 1009.31 hPa WNW 3 km/h 3 km/h 69% 0 mm 0 W/m2
00:59 12 °C 7 °C 1009.38 hPa W 2 km/h 2 km/h 69% 0 mm 0 W/m2
01:04 12 °C 7 °C 1009.41 hPa W 2 km/h 1 km/h 69% 0 mm 0 W/m2
01:09 12 °C 7 °C 1009.45 hPa W 4 km/h 3 km/h 68% 0 mm 0 W/m2
01:14 12 °C 7 °C 1009.45 hPa W 2 km/h 1 km/h 68% 0 mm 0 W/m2
01:19 12 °C 7 °C 1009.45 hPa W 2 km/h 2 km/h 68% 0 mm 0 W/m2
01:24 12 °C 7 °C 1009.48 hPa W 3 km/h 2 km/h 68% 0 mm 0 W/m2
01:29 12 °C 6 °C 1009.65 hPa WNW 7 km/h 6 km/h 67% 0 mm 0 W/m2
01:34 12 °C 7 °C 1009.72 hPa N 7 km/h 6 km/h 68% 0 mm 0 W/m2
01:39 12 °C 7 °C 1009.72 hPa NNW 8 km/h 6 km/h 69% 0 mm 0 W/m2
01:44 12 °C 7 °C 1009.72 hPa NW 6 km/h 5 km/h 70% 0 mm 0 W/m2
01:49 12 °C 7 °C 1009.75 hPa W 8 km/h 5 km/h 71% 0 mm 0 W/m2
01:54 12 °C 7 °C 1009.75 hPa WNW 8 km/h 6 km/h 71% 0 mm 0 W/m2
01:59 12 °C 7 °C 1009.72 hPa W 6 km/h 4 km/h 72% 0 mm 0 W/m2
02:04 12 °C 7 °C 1009.69 hPa WNW 6 km/h 5 km/h 73% 0 mm 0 W/m2
02:09 12 °C 7 °C 1009.55 hPa WNW 5 km/h 5 km/h 75% 0 mm 0 W/m2
02:14 11 °C 7 °C 1009.45 hPa NW 11 km/h 6 km/h 75% 0 mm 0 W/m2
02:19 11 °C 7 °C 1009.38 hPa NW 7 km/h 6 km/h 75% 0 mm 0 W/m2
02:24 11 °C 7 °C 1009.35 hPa NW 13 km/h 8 km/h 75% 0 mm 0 W/m2
02:29 11 °C 7 °C 1009.41 hPa NW 13 km/h 7 km/h 75% 0 mm 0 W/m2
02:34 11 °C 7 °C 1009.45 hPa NNW 6 km/h 7 km/h 76% 0 mm 0 W/m2
02:39 11 °C 8 °C 1009.52 hPa NW 9 km/h 7 km/h 77% 0 mm 0 W/m2
02:44 11 °C 8 °C 1009.52 hPa NW 14 km/h 7 km/h 78% 0 mm 0 W/m2
02:49 11 °C 8 °C 1009.52 hPa NW 12 km/h 10 km/h 80% 0 mm 0 W/m2
02:54 11 °C 8 °C 1009.52 hPa NW 12 km/h 8 km/h 80% 0 mm 0 W/m2
02:59 11 °C 8 °C 1009.65 hPa NW 12 km/h 7 km/h 81% 0 mm 0 W/m2
03:04 11 °C 8 °C 1009.65 hPa NNW 15 km/h 12 km/h 81% 0 mm 0 W/m2
03:09 11 °C 8 °C 1009.69 hPa NNW 15 km/h 10 km/h 82% 0 mm 0 W/m2
03:14 11 °C 8 °C 1009.75 hPa NW 16 km/h 12 km/h 83% 0 mm 0 W/m2
03:19 11 °C 8 °C 1009.72 hPa WNW 12 km/h 6 km/h 85% 0 mm 0 W/m2
03:24 11 °C 8 °C 1009.72 hPa NW 13 km/h 10 km/h 85% 0 mm 0 W/m2
03:29 10 °C 8 °C 1009.65 hPa NNW 12 km/h 9 km/h 86% 0 mm 0 W/m2
03:34 10 °C 8 °C 1009.52 hPa NW 13 km/h 10 km/h 86% 0 mm 0 W/m2
03:39 10 °C 8 °C 1009.45 hPa NW 12 km/h 10 km/h 87% 0 mm 0 W/m2
03:44 10 °C 8 °C 1009.38 hPa NW 15 km/h 11 km/h 87% 0 mm 0 W/m2
03:49 10 °C 8 °C 1009.38 hPa NW 9 km/h 6 km/h 87% 0 mm 0 W/m2
03:54 10 °C 8 °C 1009.31 hPa NW 11 km/h 7 km/h 86% 0 mm 0 W/m2
03:59 10 °C 8 °C 1009.28 hPa NW 9 km/h 5 km/h 86% 0 mm 0 W/m2
04:04 10 °C 8 °C 1009.35 hPa NW 8 km/h 6 km/h 86% 0 mm 0 W/m2
04:09 10 °C 8 °C 1009.35 hPa WNW 5 km/h 3 km/h 86% 0 mm 0 W/m2
04:14 10 °C 8 °C 1009.28 hPa W 4 km/h 2 km/h 86% 0 mm 0 W/m2
04:19 10 °C 8 °C 1009.28 hPa W 3 km/h 2 km/h 86% 0 mm 0 W/m2
04:24 10 °C 7 °C 1009.28 hPa WNW 4 km/h 2 km/h 86% 0 mm 0 W/m2
04:29 10 °C 7 °C 1009.28 hPa W 3 km/h 2 km/h 86% 0 mm 0 W/m2
04:34 10 °C 7 °C 1009.28 hPa W 4 km/h 2 km/h 86% 0 mm 0 W/m2
04:39 10 °C 8 °C 1009.31 hPa WNW 5 km/h 5 km/h 86% 0 mm 0 W/m2
04:44 10 °C 8 °C 1009.31 hPa WNW 7 km/h 5 km/h 86% 0 mm 0 W/m2
04:49 10 °C 8 °C 1009.28 hPa NW 4 km/h 1 km/h 86% 0 mm 0 W/m2
04:54 10 °C 8 °C 1009.18 hPa W 5 km/h 3 km/h 86% 0 mm 0 W/m2
04:59 10 °C 8 °C 1009.21 hPa NW 4 km/h 6 km/h 86% 0 mm 0 W/m2
05:04 10 °C 8 °C 1009.21 hPa W 7 km/h 6 km/h 86% 0 mm 0 W/m2
05:09 10 °C 8 °C 1009.21 hPa W 5 km/h 5 km/h 86% 0 mm 0 W/m2
05:14 10 °C 8 °C 1009.21 hPa NW 6 km/h 3 km/h 86% 0 mm 0 W/m2
05:19 10 °C 8 °C 1009.21 hPa WNW 5 km/h 4 km/h 86% 0 mm 0 W/m2
05:24 10 °C 8 °C 1009.14 hPa WNW 5 km/h 3 km/h 86% 0 mm 5 W/m2
05:29 10 °C 8 °C 1009.11 hPa NW 6 km/h 5 km/h 85% 0 mm 7 W/m2
05:34 10 °C 7 °C 1009.08 hPa WNW 6 km/h 4 km/h 85% 0 mm 9 W/m2
05:39 10 °C 8 °C 1009.08 hPa WNW 4 km/h 2 km/h 85% 0 mm 11 W/m2
05:44 10 °C 8 °C 1009.11 hPa WNW 3 km/h 1 km/h 85% 0 mm 12 W/m2
05:49 10 °C 7 °C 1009.08 hPa NW 5 km/h 2 km/h 84% 0 mm 12 W/m2
05:54 10 °C 7 °C 1009.08 hPa NW 5 km/h 3 km/h 85% 0 mm 14 W/m2
05:59 10 °C 7 °C 1009.08 hPa W 4 km/h 2 km/h 85% 0 mm 16 W/m2
06:04 10 °C 7 °C 1009.01 hPa NW 4 km/h 1 km/h 85% 0 mm 18 W/m2
06:09 10 °C 7 °C 1008.97 hPa W 5 km/h 2 km/h 85% 0 mm 21 W/m2
06:14 10 °C 7 °C 1008.94 hPa W 5 km/h 3 km/h 85% 0 mm 25 W/m2
06:19 10 °C 7 °C 1009.01 hPa W 4 km/h 3 km/h 86% 0 mm 30 W/m2
06:24 10 °C 7 °C 1009.01 hPa WNW 4 km/h 2 km/h 86% 0 mm 32 W/m2
06:29 10 °C 8 °C 1009.01 hPa W 4 km/h 3 km/h 86% 0 mm 35 W/m2
06:34 10 °C 8 °C 1009.04 hPa W 3 km/h 1 km/h 87% 0 mm 39 W/m2
06:39 10 °C 8 °C 1009.08 hPa NNW 4 km/h 3 km/h 87% 0 mm 49 W/m2
06:44 10 °C 8 °C 1009.08 hPa W 5 km/h 4 km/h 87% 0 mm 70 W/m2
06:49 10 °C 8 °C 1009.08 hPa W 5 km/h 2 km/h 87% 0 mm 77 W/m2
06:54 10 °C 8 °C 1009.11 hPa W 4 km/h 1 km/h 87% 0 mm 77 W/m2
06:59 10 °C 8 °C 1009.11 hPa W 5 km/h 4 km/h 87% 0 mm 76 W/m2
07:04 10 °C 8 °C 1009.08 hPa NW 3 km/h 2 km/h 87% 0 mm 72 W/m2
07:09 10 °C 8 °C 1009.04 hPa NNW 6 km/h 4 km/h 87% 0 mm 74 W/m2
07:14 10 °C 8 °C 1009.08 hPa NW 10 km/h 7 km/h 87% 0 mm 90 W/m2
07:19 10 °C 8 °C 1009.14 hPa WNW 6 km/h 5 km/h 87% 0 mm 98 W/m2
07:24 10 °C 8 °C 1009.18 hPa NW 10 km/h 5 km/h 86% 0 mm 98 W/m2
07:29 10 °C 8 °C 1009.18 hPa NW 6 km/h 3 km/h 86% 0 mm 100 W/m2
07:34 10 °C 8 °C 1009.18 hPa NW 6 km/h 4 km/h 86% 0 mm 113 W/m2
07:39 10 °C 8 °C 1009.18 hPa NW 8 km/h 5 km/h 86% 0 mm 123 W/m2
07:44 10 °C 8 °C 1009.21 hPa NW 8 km/h 6 km/h 86% 0 mm 141 W/m2
07:49 11 °C 8 °C 1009.18 hPa NW 4 km/h 3 km/h 86% 0 mm 163 W/m2
07:54 11 °C 8 °C 1009.18 hPa NW 4 km/h 3 km/h 86% 0 mm 178 W/m2
07:59 11 °C 9 °C 1009.18 hPa NW 10 km/h 4 km/h 86% 0 mm 206 W/m2
08:04 11 °C 9 °C 1009.18 hPa NNW 7 km/h 4 km/h 86% 0 mm 213 W/m2
08:09 11 °C 9 °C 1009.14 hPa NW 6 km/h 4 km/h 86% 0 mm 209 W/m2
08:14 11 °C 9 °C 1009.11 hPa W 5 km/h 3 km/h 86% 0 mm 332 W/m2
08:19 11 °C 9 °C 1009.08 hPa WNW 7 km/h 4 km/h 85% 0 mm 332 W/m2
08:24 11 °C 9 °C 1009.08 hPa NW 9 km/h 5 km/h 85% 0 mm 323 W/m2
08:29 11 °C 9 °C 1009.08 hPa N 7 km/h 5 km/h 84% 0 mm 262 W/m2
08:34 11 °C 9 °C 1009.04 hPa NW 7 km/h 7 km/h 84% 0 mm 216 W/m2
08:39 11 °C 9 °C 1009.08 hPa W 4 km/h 1 km/h 84% 0 mm 200 W/m2
08:44 11 °C 9 °C 1009.11 hPa NNW 9 km/h 8 km/h 84% 0 mm 244 W/m2
08:49 11 °C 9 °C 1009.14 hPa NNW 6 km/h 4 km/h 84% 0 mm 274 W/m2
08:54 12 °C 9 °C 1009.11 hPa NW 5 km/h 5 km/h 85% 0 mm 272 W/m2
08:59 12 °C 9 °C 1009.18 hPa WNW 6 km/h 5 km/h 85% 0 mm 248 W/m2
09:04 12 °C 9 °C 1009.18 hPa WNW 5 km/h 3 km/h 85% 0 mm 241 W/m2
09:09 12 °C 9 °C 1009.18 hPa WNW 6 km/h 3 km/h 85% 0 mm 214 W/m2
09:14 12 °C 9 °C 1009.21 hPa W 4 km/h 4 km/h 84% 0 mm 185 W/m2
09:19 12 °C 9 °C 1009.18 hPa WNW 4 km/h 2 km/h 84% 0 mm 171 W/m2
09:24 12 °C 9 °C 1009.21 hPa WNW 5 km/h 3 km/h 84% 0 mm 206 W/m2
09:29 12 °C 9 °C 1009.21 hPa NW 4 km/h 3 km/h 83% 0 mm 234 W/m2
09:34 12 °C 9 °C 1009.28 hPa W 6 km/h 5 km/h 83% 0 mm 244 W/m2
09:39 12 °C 9 °C 1009.28 hPa WNW 7 km/h 6 km/h 82% 0 mm 269 W/m2
09:44 12 °C 9 °C 1009.28 hPa WNW 9 km/h 7 km/h 81% 0 mm 311 W/m2
09:49 13 °C 10 °C 1009.31 hPa WNW 5 km/h 4 km/h 81% 0 mm 490 W/m2
09:54 13 °C 10 °C 1009.31 hPa NW 7 km/h 5 km/h 80% 0 mm 497 W/m2
09:59 13 °C 10 °C 1009.31 hPa NNW 11 km/h 6 km/h 80% 0 mm 264 W/m2
10:04 13 °C 10 °C 1009.28 hPa NW 5 km/h 5 km/h 80% 0 mm 353 W/m2
10:09 13 °C 10 °C 1009.28 hPa W 9 km/h 6 km/h 81% 0 mm 671 W/m2
10:14 13 °C 10 °C 1009.28 hPa NW 10 km/h 7 km/h 81% 0 mm 671 W/m2
10:19 13 °C 10 °C 1009.21 hPa NNW 8 km/h 7 km/h 79% 0 mm 628 W/m2
10:24 14 °C 10 °C 1009.18 hPa NNW 9 km/h 6 km/h 78% 0 mm 643 W/m2
10:29 14 °C 10 °C 1009.18 hPa NW 16 km/h 11 km/h 76% 0 mm 694 W/m2
10:34 14 °C 10 °C 1009.25 hPa NNW 11 km/h 12 km/h 76% 0 mm 742 W/m2
10:39 14 °C 10 °C 1009.28 hPa NNW 18 km/h 15 km/h 75% 0 mm 809 W/m2
10:44 14 °C 10 °C 1009.31 hPa N 18 km/h 13 km/h 76% 0 mm 847 W/m2
10:49 14 °C 10 °C 1009.31 hPa N 14 km/h 10 km/h 77% 0 mm 844 W/m2
10:54 14 °C 10 °C 1009.25 hPa NNW 13 km/h 13 km/h 77% 0 mm 810 W/m2
10:59 14 °C 10 °C 1009.25 hPa NNW 8 km/h 7 km/h 75% 0 mm 821 W/m2
11:04 15 °C 10 °C 1009.28 hPa N 9 km/h 10 km/h 75% 0 mm 872 W/m2
11:09 15 °C 10 °C 1009.31 hPa NNW 13 km/h 10 km/h 73% 0 mm 889 W/m2
11:14 15 °C 10 °C 1009.31 hPa NNW 16 km/h 12 km/h 74% 0 mm 271 W/m2
11:19 14 °C 10 °C 1009.31 hPa NNW 18 km/h 13 km/h 77% 0 mm 870 W/m2
11:24 14 °C 10 °C 1009.28 hPa N 20 km/h 14 km/h 80% 0 mm 944 W/m2
11:29 14 °C 10 °C 1009.31 hPa NNW 17 km/h 14 km/h 79% 0 mm 288 W/m2
11:34 14 °C 10 °C 1009.35 hPa N 14 km/h 9 km/h 79% 0 mm 121 W/m2
11:39 13 °C 10 °C 1009.35 hPa N 15 km/h 11 km/h 79% 0 mm 74 W/m2
11:44 13 °C 10 °C 1009.52 hPa NNW 15 km/h 12 km/h 80% 0 mm 67 W/m2
11:49 13 °C 10 °C 1009.55 hPa N 13 km/h 10 km/h 82% 0 mm 79 W/m2
11:54 13 °C 10 °C 1009.55 hPa N 8 km/h 7 km/h 83% 0 mm 84 W/m2
11:59 13 °C 10 °C 1009.55 hPa NNW 9 km/h 8 km/h 83% 0 mm 83 W/m2
12:04 13 °C 10 °C 1009.62 hPa NNW 9 km/h 7 km/h 83% 0 mm 97 W/m2
12:09 13 °C 10 °C 1009.62 hPa W 7 km/h 7 km/h 83% 0 mm 174 W/m2
12:14 13 °C 10 °C 1009.69 hPa N 9 km/h 7 km/h 83% 0 mm 271 W/m2
12:19 13 °C 10 °C 1009.65 hPa NNW 13 km/h 10 km/h 83% 0 mm 264 W/m2
12:24 13 °C 10 °C 1009.62 hPa NNW 12 km/h 8 km/h 82% 0 mm 167 W/m2
12:29 13 °C 10 °C 1009.65 hPa NNW 11 km/h 9 km/h 81% 0 mm 120 W/m2
12:34 13 °C 10 °C 1009.75 hPa NW 9 km/h 8 km/h 80% 0 mm 83 W/m2
12:39 13 °C 10 °C 1009.85 hPa WNW 12 km/h 5 km/h 80% 0 mm 76 W/m2
12:44 13 °C 10 °C 1009.96 hPa WNW 5 km/h 4 km/h 81% 0.2 mm 67 W/m2
12:49 13 °C 10 °C 1009.99 hPa NNW 10 km/h 9 km/h 82% 0.2 mm 79 W/m2
12:54 13 °C 10 °C 1010.09 hPa NW 10 km/h 9 km/h 83% 0.2 mm 120 W/m2
12:59 13 °C 10 °C 1010.09 hPa NW 10 km/h 6 km/h 84% 0.2 mm 162 W/m2
13:04 12 °C 10 °C 1010.19 hPa NNW 5 km/h 3 km/h 85% 0.2 mm 165 W/m2
13:09 12 °C 10 °C 1010.26 hPa W 4 km/h 2 km/h 86% 0.2 mm 141 W/m2
13:14 12 °C 10 °C 1010.3 hPa NW 8 km/h 5 km/h 86% 0.41 mm 102 W/m2
13:19 12 °C 10 °C 1010.33 hPa NW 6 km/h 5 km/h 86% 0.41 mm 134 W/m2
13:24 12 °C 10 °C 1010.36 hPa SW 6 km/h 5 km/h 86% 0.41 mm 199 W/m2
13:29 12 °C 10 °C 1010.3 hPa WSW 4 km/h 5 km/h 87% 0.41 mm 274 W/m2
13:34 12 °C 10 °C 1010.23 hPa N 7 km/h 6 km/h 87% 0.41 mm 304 W/m2
13:39 13 °C 11 °C 1010.33 hPa N 8 km/h 7 km/h 87% 0.41 mm 304 W/m2
13:44 13 °C 11 °C 1010.36 hPa N 9 km/h 8 km/h 87% 0.41 mm 279 W/m2
13:49 13 °C 11 °C 1010.33 hPa N 12 km/h 10 km/h 87% 0.2 mm 373 W/m2
13:54 13 °C 11 °C 1010.3 hPa NNW 12 km/h 8 km/h 86% 0.2 mm 387 W/m2
13:59 13 °C 11 °C 1010.33 hPa NW 11 km/h 8 km/h 86% 0.2 mm 737 W/m2
14:04 14 °C 11 °C 1010.4 hPa N 12 km/h 10 km/h 85% 0.2 mm 461 W/m2
14:09 14 °C 11 °C 1010.4 hPa NNW 13 km/h 9 km/h 84% 0.2 mm 462 W/m2
14:14 14 °C 11 °C 1010.4 hPa NNW 12 km/h 9 km/h 83% 0.2 mm 485 W/m2
14:19 14 °C 11 °C 1010.36 hPa N 14 km/h 14 km/h 81% 0 mm 413 W/m2
14:24 14 °C 10 °C 1010.36 hPa N 18 km/h 14 km/h 81% 0 mm 420 W/m2
14:29 14 °C 10 °C 1010.4 hPa N 16 km/h 13 km/h 81% 0 mm 388 W/m2
14:34 13 °C 10 °C 1010.43 hPa N 14 km/h 13 km/h 81% 0 mm 297 W/m2
14:39 13 °C 10 °C 1010.53 hPa N 18 km/h 13 km/h 81% 0 mm 482 W/m2
14:44 13 °C 10 °C 1010.57 hPa NNW 22 km/h 13 km/h 82% 0 mm 482 W/m2
14:49 13 °C 10 °C 1010.57 hPa NNW 15 km/h 10 km/h 82% 0 mm 374 W/m2
14:54 14 °C 10 °C 1010.67 hPa NNW 16 km/h 13 km/h 81% 0 mm 520 W/m2
14:59 14 °C 10 °C 1010.7 hPa N 17 km/h 13 km/h 80% 0 mm 976 W/m2
Compliments of Weather Underground - 2 mb